sensor_id;sensor_type;location;lat;lon;timestamp;P1;durP1;ratioP1;P2;durP2;ratioP2
72611;SDS011;60655;52.182;4.474;2022-10-16T00:00:36;5.93;;;0.95;;
72611;SDS011;60655;52.182;4.474;2022-10-16T00:02:38;3.25;;;1.00;;
72611;SDS011;60655;52.182;4.474;2022-10-16T00:04:39;4.80;;;1.10;;
72611;SDS011;60655;52.182;4.474;2022-10-16T00:06:40;5.00;;;1.00;;
72611;SDS011;60655;52.182;4.474;2022-10-16T00:08:41;4.32;;;1.17;;
72611;SDS011;60655;52.182;4.474;2022-10-16T00:10:42;5.40;;;0.90;;
72611;SDS011;60655;52.182;4.474;2022-10-16T00:12:43;4.60;;;1.02;;
72611;SDS011;60655;52.182;4.474;2022-10-16T00:14:44;4.85;;;1.00;;
72611;SDS011;60655;52.182;4.474;2022-10-16T00:16:45;4.15;;;1.20;;
72611;SDS011;60655;52.182;4.474;2022-10-16T00:18:46;1.30;;;0.80;;
72611;SDS011;60655;52.182;4.474;2022-10-16T00:20:48;3.90;;;1.10;;
72611;SDS011;60655;52.182;4.474;2022-10-16T00:22:49;4.80;;;1.10;;
72611;SDS011;60655;52.182;4.474;2022-10-16T00:24:50;4.18;;;1.13;;
72611;SDS011;60655;52.182;4.474;2022-10-16T00:26:51;3.70;;;0.90;;
72611;SDS011;60655;52.182;4.474;2022-10-16T00:28:52;4.38;;;0.80;;
72611;SDS011;60655;52.182;4.474;2022-10-16T00:30:53;3.00;;;0.90;;
72611;SDS011;60655;52.182;4.474;2022-10-16T00:32:54;3.17;;;0.95;;
72611;SDS011;60655;52.182;4.474;2022-10-16T00:34:56;5.72;;;1.00;;
72611;SDS011;60655;52.182;4.474;2022-10-16T00:36:57;3.65;;;1.33;;
72611;SDS011;60655;52.182;4.474;2022-10-16T00:38:58;2.33;;;0.90;;
72611;SDS011;60655;52.182;4.474;2022-10-16T00:41:01;2.58;;;0.90;;
72611;SDS011;60655;52.182;4.474;2022-10-16T00:43:02;3.97;;;1.00;;
72611;SDS011;60655;52.182;4.474;2022-10-16T00:45:03;2.13;;;0.85;;
72611;SDS011;60655;52.182;4.474;2022-10-16T00:47:05;2.47;;;1.10;;
72611;SDS011;60655;52.182;4.474;2022-10-16T00:49:10;2.28;;;0.63;;
72611;SDS011;60655;52.182;4.474;2022-10-16T00:51:13;2.55;;;0.90;;
72611;SDS011;60655;52.182;4.474;2022-10-16T00:53:16;4.30;;;0.80;;
72611;SDS011;60655;52.182;4.474;2022-10-16T00:55:18;2.35;;;0.88;;
72611;SDS011;60655;52.182;4.474;2022-10-16T00:57:20;3.30;;;0.80;;
72611;SDS011;60655;52.182;4.474;2022-10-16T00:59:29;1.48;;;0.63;;
72611;SDS011;60655;52.182;4.474;2022-10-16T01:01:32;2.42;;;0.75;;
72611;SDS011;60655;52.182;4.474;2022-10-16T01:03:34;3.63;;;0.90;;
72611;SDS011;60655;52.182;4.474;2022-10-16T01:05:39;2.28;;;0.80;;
72611;SDS011;60655;52.182;4.474;2022-10-16T01:07:52;2.35;;;0.82;;
72611;SDS011;60655;52.182;4.474;2022-10-16T01:14:22;3.65;;;0.77;;
72611;SDS011;60655;52.182;4.474;2022-10-16T01:19:08;5.18;;;0.80;;
72611;SDS011;60655;52.182;4.474;2022-10-16T01:25:35;2.38;;;0.80;;
72611;SDS011;60655;52.182;4.474;2022-10-16T01:27:45;1.90;;;0.70;;
72611;SDS011;60655;52.182;4.474;2022-10-16T01:32:18;2.90;;;0.90;;
72611;SDS011;60655;52.182;4.474;2022-10-16T01:34:54;2.40;;;0.75;;
72611;SDS011;60655;52.182;4.474;2022-10-16T01:37:04;5.43;;;1.08;;
72611;SDS011;60655;52.182;4.474;2022-10-16T01:39:09;3.78;;;0.90;;
72611;SDS011;60655;52.182;4.474;2022-10-16T01:41:14;3.70;;;0.93;;
72611;SDS011;60655;52.182;4.474;2022-10-16T01:43:21;3.00;;;1.02;;
72611;SDS011;60655;52.182;4.474;2022-10-16T01:45:28;2.60;;;0.90;;
72611;SDS011;60655;52.182;4.474;2022-10-16T01:47:31;5.47;;;1.00;;
72611;SDS011;60655;52.182;4.474;2022-10-16T01:49:35;3.33;;;0.80;;
72611;SDS011;60655;52.182;4.474;2022-10-16T01:51:39;2.45;;;0.80;;
72611;SDS011;60655;52.182;4.474;2022-10-16T01:53:43;2.33;;;1.05;;
72611;SDS011;60655;52.182;4.474;2022-10-16T01:55:49;2.15;;;0.80;;
72611;SDS011;60655;52.182;4.474;2022-10-16T01:57:52;4.30;;;1.15;;
72611;SDS011;60655;52.182;4.474;2022-10-16T01:59:57;2.22;;;0.85;;
72611;SDS011;60655;52.182;4.474;2022-10-16T02:02:05;1.67;;;0.90;;
72611;SDS011;60655;52.182;4.474;2022-10-16T02:04:21;2.67;;;1.10;;
72611;SDS011;60655;52.182;4.474;2022-10-16T02:06:27;3.45;;;0.90;;
72611;SDS011;60655;52.182;4.474;2022-10-16T02:08:30;5.35;;;1.10;;
72611;SDS011;60655;52.182;4.474;2022-10-16T02:10:32;4.65;;;1.10;;
72611;SDS011;60655;52.182;4.474;2022-10-16T02:12:35;1.63;;;0.80;;
72611;SDS011;60655;52.182;4.474;2022-10-16T02:14:40;3.30;;;0.90;;
72611;SDS011;60655;52.182;4.474;2022-10-16T02:16:46;2.88;;;1.00;;
72611;SDS011;60655;52.182;4.474;2022-10-16T02:18:47;1.77;;;0.93;;
72611;SDS011;60655;52.182;4.474;2022-10-16T02:21:02;3.33;;;0.80;;
72611;SDS011;60655;52.182;4.474;2022-10-16T02:23:30;2.45;;;0.90;;
72611;SDS011;60655;52.182;4.474;2022-10-16T02:25:38;4.75;;;1.10;;
72611;SDS011;60655;52.182;4.474;2022-10-16T02:27:46;4.03;;;1.02;;
72611;SDS011;60655;52.182;4.474;2022-10-16T02:29:59;4.82;;;1.00;;
72611;SDS011;60655;52.182;4.474;2022-10-16T02:32:23;3.17;;;1.00;;
72611;SDS011;60655;52.182;4.474;2022-10-16T02:34:28;5.43;;;1.10;;
72611;SDS011;60655;52.182;4.474;2022-10-16T02:36:32;3.15;;;1.10;;
72611;SDS011;60655;52.182;4.474;2022-10-16T02:38:36;5.47;;;1.23;;
72611;SDS011;60655;52.182;4.474;2022-10-16T02:40:39;5.43;;;1.20;;
72611;SDS011;60655;52.182;4.474;2022-10-16T02:42:40;5.20;;;1.40;;
72611;SDS011;60655;52.182;4.474;2022-10-16T02:44:42;2.72;;;1.20;;
72611;SDS011;60655;52.182;4.474;2022-10-16T02:46:43;4.28;;;1.10;;
72611;SDS011;60655;52.182;4.474;2022-10-16T02:48:44;4.30;;;1.17;;
72611;SDS011;60655;52.182;4.474;2022-10-16T02:50:46;4.85;;;1.17;;
72611;SDS011;60655;52.182;4.474;2022-10-16T02:52:47;6.47;;;1.33;;
72611;SDS011;60655;52.182;4.474;2022-10-16T02:54:48;5.80;;;1.30;;
72611;SDS011;60655;52.182;4.474;2022-10-16T02:56:49;3.53;;;1.20;;
72611;SDS011;60655;52.182;4.474;2022-10-16T02:58:50;6.05;;;1.50;;
72611;SDS011;60655;52.182;4.474;2022-10-16T03:00:51;5.45;;;1.30;;
72611;SDS011;60655;52.182;4.474;2022-10-16T03:02:52;3.88;;;1.30;;
72611;SDS011;60655;52.182;4.474;2022-10-16T03:04:53;6.25;;;1.20;;
72611;SDS011;60655;52.182;4.474;2022-10-16T03:06:54;4.57;;;1.33;;
72611;SDS011;60655;52.182;4.474;2022-10-16T03:08:55;4.82;;;1.60;;
72611;SDS011;60655;52.182;4.474;2022-10-16T03:10:56;3.33;;;1.25;;
72611;SDS011;60655;52.182;4.474;2022-10-16T03:12:57;3.67;;;1.30;;
72611;SDS011;60655;52.182;4.474;2022-10-16T03:14:58;4.90;;;1.20;;
72611;SDS011;60655;52.182;4.474;2022-10-16T03:17:00;5.60;;;1.50;;
72611;SDS011;60655;52.182;4.474;2022-10-16T03:19:01;6.35;;;1.40;;
72611;SDS011;60655;52.182;4.474;2022-10-16T03:21:02;4.88;;;1.50;;
72611;SDS011;60655;52.182;4.474;2022-10-16T03:23:03;4.05;;;1.42;;
72611;SDS011;60655;52.182;4.474;2022-10-16T03:25:04;5.50;;;1.45;;
72611;SDS011;60655;52.182;4.474;2022-10-16T03:27:06;4.78;;;1.33;;
72611;SDS011;60655;52.182;4.474;2022-10-16T03:29:07;9.57;;;1.40;;
72611;SDS011;60655;52.182;4.474;2022-10-16T03:31:08;3.75;;;1.30;;
72611;SDS011;60655;52.182;4.474;2022-10-16T03:33:09;6.63;;;1.20;;
72611;SDS011;60655;52.182;4.474;2022-10-16T03:35:10;3.80;;;1.20;;
72611;SDS011;60655;52.182;4.474;2022-10-16T03:37:11;4.55;;;1.20;;
72611;SDS011;60655;52.182;4.474;2022-10-16T03:39:12;4.57;;;1.02;;
72611;SDS011;60655;52.182;4.474;2022-10-16T03:41:13;3.90;;;1.10;;
72611;SDS011;60655;52.182;4.474;2022-10-16T03:43:15;4.97;;;1.30;;
72611;SDS011;60655;52.182;4.474;2022-10-16T03:45:15;2.65;;;1.20;;
72611;SDS011;60655;52.182;4.474;2022-10-16T03:47:17;5.70;;;0.93;;
72611;SDS011;60655;52.182;4.474;2022-10-16T03:49:22;4.00;;;1.00;;
72611;SDS011;60655;52.182;4.474;2022-10-16T03:51:23;4.10;;;0.93;;
72611;SDS011;60655;52.182;4.474;2022-10-16T03:53:25;5.22;;;1.10;;
72611;SDS011;60655;52.182;4.474;2022-10-16T03:55:26;5.00;;;1.13;;
72611;SDS011;60655;52.182;4.474;2022-10-16T03:57:27;3.92;;;1.08;;
72611;SDS011;60655;52.182;4.474;2022-10-16T03:59:28;6.30;;;0.93;;
72611;SDS011;60655;52.182;4.474;2022-10-16T04:01:29;6.13;;;1.00;;
72611;SDS011;60655;52.182;4.474;2022-10-16T04:03:31;12.63;;;1.40;;
72611;SDS011;60655;52.182;4.474;2022-10-16T04:05:31;4.57;;;1.00;;
72611;SDS011;60655;52.182;4.474;2022-10-16T04:07:32;4.25;;;1.05;;
72611;SDS011;60655;52.182;4.474;2022-10-16T04:09:33;4.50;;;1.02;;
72611;SDS011;60655;52.182;4.474;2022-10-16T04:11:34;5.20;;;1.20;;
72611;SDS011;60655;52.182;4.474;2022-10-16T04:13:35;3.83;;;0.90;;
72611;SDS011;60655;52.182;4.474;2022-10-16T04:15:36;6.32;;;0.95;;
72611;SDS011;60655;52.182;4.474;2022-10-16T04:17:38;3.40;;;1.00;;
72611;SDS011;60655;52.182;4.474;2022-10-16T04:19:38;5.10;;;0.85;;
72611;SDS011;60655;52.182;4.474;2022-10-16T04:21:39;5.57;;;1.10;;
72611;SDS011;60655;52.182;4.474;2022-10-16T04:23:41;5.28;;;0.95;;
72611;SDS011;60655;52.182;4.474;2022-10-16T04:25:42;5.90;;;1.00;;
72611;SDS011;60655;52.182;4.474;2022-10-16T04:27:43;3.75;;;0.90;;
72611;SDS011;60655;52.182;4.474;2022-10-16T04:29:44;4.15;;;1.33;;
72611;SDS011;60655;52.182;4.474;2022-10-16T04:31:46;3.47;;;0.88;;
72611;SDS011;60655;52.182;4.474;2022-10-16T04:33:47;3.13;;;0.95;;
72611;SDS011;60655;52.182;4.474;2022-10-16T04:35:48;6.07;;;1.20;;
72611;SDS011;60655;52.182;4.474;2022-10-16T04:37:49;5.10;;;1.00;;
72611;SDS011;60655;52.182;4.474;2022-10-16T04:39:51;2.75;;;0.90;;
72611;SDS011;60655;52.182;4.474;2022-10-16T04:41:52;6.22;;;1.13;;
72611;SDS011;60655;52.182;4.474;2022-10-16T04:43:53;2.95;;;0.70;;
72611;SDS011;60655;52.182;4.474;2022-10-16T04:45:54;5.18;;;1.20;;
72611;SDS011;60655;52.182;4.474;2022-10-16T04:47:59;4.40;;;1.00;;
72611;SDS011;60655;52.182;4.474;2022-10-16T04:50:00;4.35;;;0.95;;
72611;SDS011;60655;52.182;4.474;2022-10-16T04:52:02;6.38;;;1.10;;
72611;SDS011;60655;52.182;4.474;2022-10-16T04:54:03;2.90;;;1.20;;
72611;SDS011;60655;52.182;4.474;2022-10-16T04:56:04;4.30;;;1.23;;
72611;SDS011;60655;52.182;4.474;2022-10-16T04:58:06;6.57;;;1.30;;
72611;SDS011;60655;52.182;4.474;2022-10-16T05:00:07;4.93;;;1.20;;
72611;SDS011;60655;52.182;4.474;2022-10-16T05:02:08;3.35;;;1.10;;
72611;SDS011;60655;52.182;4.474;2022-10-16T05:04:10;4.38;;;1.30;;
72611;SDS011;60655;52.182;4.474;2022-10-16T05:06:11;3.97;;;1.00;;
72611;SDS011;60655;52.182;4.474;2022-10-16T05:08:13;4.30;;;1.35;;
72611;SDS011;60655;52.182;4.474;2022-10-16T05:10:17;2.58;;;1.05;;
72611;SDS011;60655;52.182;4.474;2022-10-16T05:12:18;4.53;;;1.40;;
72611;SDS011;60655;52.182;4.474;2022-10-16T05:14:19;2.88;;;1.05;;
72611;SDS011;60655;52.182;4.474;2022-10-16T05:16:21;6.13;;;1.55;;
72611;SDS011;60655;52.182;4.474;2022-10-16T05:18:22;3.53;;;1.40;;
72611;SDS011;60655;52.182;4.474;2022-10-16T05:20:23;5.80;;;1.23;;
72611;SDS011;60655;52.182;4.474;2022-10-16T05:22:24;4.75;;;1.23;;
72611;SDS011;60655;52.182;4.474;2022-10-16T05:24:25;5.10;;;1.30;;
72611;SDS011;60655;52.182;4.474;2022-10-16T05:26:27;2.95;;;1.30;;
72611;SDS011;60655;52.182;4.474;2022-10-16T05:28:28;4.18;;;1.27;;
72611;SDS011;60655;52.182;4.474;2022-10-16T05:30:30;7.93;;;1.08;;
72611;SDS011;60655;52.182;4.474;2022-10-16T05:32:31;4.78;;;1.27;;
72611;SDS011;60655;52.182;4.474;2022-10-16T05:34:32;5.50;;;1.40;;
72611;SDS011;60655;52.182;4.474;2022-10-16T05:36:33;3.30;;;1.00;;
72611;SDS011;60655;52.182;4.474;2022-10-16T05:38:35;5.28;;;1.23;;
72611;SDS011;60655;52.182;4.474;2022-10-16T05:40:36;3.72;;;1.20;;
72611;SDS011;60655;52.182;4.474;2022-10-16T05:42:37;7.18;;;1.60;;
72611;SDS011;60655;52.182;4.474;2022-10-16T05:44:38;5.82;;;1.40;;
72611;SDS011;60655;52.182;4.474;2022-10-16T05:46:39;5.28;;;1.50;;
72611;SDS011;60655;52.182;4.474;2022-10-16T05:48:40;7.15;;;1.38;;
72611;SDS011;60655;52.182;4.474;2022-10-16T05:50:41;6.85;;;1.60;;
72611;SDS011;60655;52.182;4.474;2022-10-16T05:52:42;6.13;;;1.08;;
72611;SDS011;60655;52.182;4.474;2022-10-16T05:54:43;7.32;;;1.95;;
72611;SDS011;60655;52.182;4.474;2022-10-16T05:56:44;8.57;;;1.55;;
72611;SDS011;60655;52.182;4.474;2022-10-16T05:58:45;5.82;;;1.52;;
72611;SDS011;60655;52.182;4.474;2022-10-16T06:00:53;8.45;;;1.80;;
72611;SDS011;60655;52.182;4.474;2022-10-16T06:02:55;7.55;;;1.70;;
72611;SDS011;60655;52.182;4.474;2022-10-16T06:04:56;5.32;;;1.38;;
72611;SDS011;60655;52.182;4.474;2022-10-16T06:07:00;3.80;;;1.50;;
72611;SDS011;60655;52.182;4.474;2022-10-16T06:09:01;6.70;;;1.70;;
72611;SDS011;60655;52.182;4.474;2022-10-16T06:11:07;5.93;;;1.60;;
72611;SDS011;60655;52.182;4.474;2022-10-16T06:13:09;10.63;;;2.03;;
72611;SDS011;60655;52.182;4.474;2022-10-16T06:15:11;5.97;;;1.70;;
72611;SDS011;60655;52.182;4.474;2022-10-16T06:17:12;7.53;;;1.75;;
72611;SDS011;60655;52.182;4.474;2022-10-16T06:19:14;9.68;;;2.05;;
72611;SDS011;60655;52.182;4.474;2022-10-16T06:21:17;4.60;;;1.65;;
72611;SDS011;60655;52.182;4.474;2022-10-16T06:23:20;5.82;;;1.80;;
72611;SDS011;60655;52.182;4.474;2022-10-16T06:25:21;4.75;;;1.75;;
72611;SDS011;60655;52.182;4.474;2022-10-16T06:27:22;5.63;;;1.80;;
72611;SDS011;60655;52.182;4.474;2022-10-16T06:29:23;6.15;;;1.80;;
72611;SDS011;60655;52.182;4.474;2022-10-16T06:31:24;6.25;;;1.50;;
72611;SDS011;60655;52.182;4.474;2022-10-16T06:33:28;7.20;;;1.40;;
72611;SDS011;60655;52.182;4.474;2022-10-16T06:35:29;5.97;;;1.63;;
72611;SDS011;60655;52.182;4.474;2022-10-16T06:37:32;6.05;;;1.35;;
72611;SDS011;60655;52.182;4.474;2022-10-16T06:39:33;4.95;;;1.33;;
72611;SDS011;60655;52.182;4.474;2022-10-16T06:41:34;5.88;;;1.50;;
72611;SDS011;60655;52.182;4.474;2022-10-16T06:43:37;8.18;;;1.60;;
72611;SDS011;60655;52.182;4.474;2022-10-16T06:45:38;4.78;;;1.20;;
72611;SDS011;60655;52.182;4.474;2022-10-16T06:47:39;3.67;;;1.00;;
72611;SDS011;60655;52.182;4.474;2022-10-16T06:49:40;6.97;;;1.30;;
72611;SDS011;60655;52.182;4.474;2022-10-16T06:51:41;5.70;;;1.20;;
72611;SDS011;60655;52.182;4.474;2022-10-16T06:53:43;7.35;;;1.40;;
72611;SDS011;60655;52.182;4.474;2022-10-16T06:55:46;4.90;;;1.38;;
72611;SDS011;60655;52.182;4.474;2022-10-16T06:57:47;11.30;;;1.35;;
72611;SDS011;60655;52.182;4.474;2022-10-16T06:59:49;5.72;;;1.10;;
72611;SDS011;60655;52.182;4.474;2022-10-16T07:01:50;5.95;;;1.15;;
72611;SDS011;60655;52.182;4.474;2022-10-16T07:03:51;3.95;;;0.85;;
72611;SDS011;60655;52.182;4.474;2022-10-16T07:05:52;9.98;;;1.73;;
72611;SDS011;60655;52.182;4.474;2022-10-16T07:07:53;7.28;;;1.20;;
72611;SDS011;60655;52.182;4.474;2022-10-16T07:09:54;4.13;;;1.10;;
72611;SDS011;60655;52.182;4.474;2022-10-16T07:11:55;7.07;;;1.30;;
72611;SDS011;60655;52.182;4.474;2022-10-16T07:13:56;7.60;;;1.17;;
72611;SDS011;60655;52.182;4.474;2022-10-16T07:15:57;5.50;;;1.10;;
72611;SDS011;60655;52.182;4.474;2022-10-16T07:17:58;4.20;;;1.20;;
72611;SDS011;60655;52.182;4.474;2022-10-16T07:20:00;5.78;;;1.10;;
72611;SDS011;60655;52.182;4.474;2022-10-16T07:22:01;7.57;;;1.30;;
72611;SDS011;60655;52.182;4.474;2022-10-16T07:24:04;8.05;;;1.50;;
72611;SDS011;60655;52.182;4.474;2022-10-16T07:26:11;12.35;;;1.65;;
72611;SDS011;60655;52.182;4.474;2022-10-16T07:28:12;6.30;;;1.23;;
72611;SDS011;60655;52.182;4.474;2022-10-16T07:30:13;4.53;;;1.25;;
72611;SDS011;60655;52.182;4.474;2022-10-16T07:32:14;5.03;;;1.27;;
72611;SDS011;60655;52.182;4.474;2022-10-16T07:34:15;7.38;;;1.60;;
72611;SDS011;60655;52.182;4.474;2022-10-16T07:36:19;10.60;;;1.55;;
72611;SDS011;60655;52.182;4.474;2022-10-16T07:38:21;7.88;;;1.50;;
72611;SDS011;60655;52.182;4.474;2022-10-16T07:40:22;6.38;;;1.48;;
72611;SDS011;60655;52.182;4.474;2022-10-16T07:42:23;5.40;;;1.40;;
72611;SDS011;60655;52.182;4.474;2022-10-16T07:44:24;6.63;;;1.48;;
72611;SDS011;60655;52.182;4.474;2022-10-16T07:46:25;8.13;;;1.80;;
72611;SDS011;60655;52.182;4.474;2022-10-16T07:48:27;8.70;;;1.33;;
72611;SDS011;60655;52.182;4.474;2022-10-16T07:50:30;7.00;;;1.67;;
72611;SDS011;60655;52.182;4.474;2022-10-16T07:52:31;4.20;;;1.23;;
72611;SDS011;60655;52.182;4.474;2022-10-16T07:54:32;6.57;;;1.58;;
72611;SDS011;60655;52.182;4.474;2022-10-16T07:56:33;7.55;;;1.70;;
72611;SDS011;60655;52.182;4.474;2022-10-16T07:58:34;7.47;;;1.55;;
72611;SDS011;60655;52.182;4.474;2022-10-16T08:00:39;10.55;;;1.98;;
72611;SDS011;60655;52.182;4.474;2022-10-16T08:02:40;8.32;;;1.70;;
72611;SDS011;60655;52.182;4.474;2022-10-16T08:04:41;6.20;;;1.70;;
72611;SDS011;60655;52.182;4.474;2022-10-16T08:06:42;7.97;;;1.95;;
72611;SDS011;60655;52.182;4.474;2022-10-16T08:08:43;6.90;;;2.00;;
72611;SDS011;60655;52.182;4.474;2022-10-16T08:10:44;7.70;;;2.08;;
72611;SDS011;60655;52.182;4.474;2022-10-16T08:12:47;6.03;;;1.40;;
72611;SDS011;60655;52.182;4.474;2022-10-16T08:14:48;9.10;;;1.92;;
72611;SDS011;60655;52.182;4.474;2022-10-16T08:16:49;10.15;;;1.85;;
72611;SDS011;60655;52.182;4.474;2022-10-16T08:18:50;11.27;;;2.13;;
72611;SDS011;60655;52.182;4.474;2022-10-16T08:20:58;9.70;;;1.63;;
72611;SDS011;60655;52.182;4.474;2022-10-16T08:23:00;5.32;;;1.35;;
72611;SDS011;60655;52.182;4.474;2022-10-16T08:25:02;6.28;;;1.60;;
72611;SDS011;60655;52.182;4.474;2022-10-16T08:27:03;8.18;;;1.67;;
72611;SDS011;60655;52.182;4.474;2022-10-16T08:29:04;7.78;;;1.60;;
72611;SDS011;60655;52.182;4.474;2022-10-16T08:31:09;5.55;;;1.60;;
72611;SDS011;60655;52.182;4.474;2022-10-16T08:33:12;8.55;;;1.80;;
72611;SDS011;60655;52.182;4.474;2022-10-16T08:35:13;10.38;;;1.83;;
72611;SDS011;60655;52.182;4.474;2022-10-16T08:37:15;8.38;;;1.98;;
72611;SDS011;60655;52.182;4.474;2022-10-16T08:39:16;9.15;;;1.60;;
72611;SDS011;60655;52.182;4.474;2022-10-16T08:48:26;10.73;;;1.60;;
72611;SDS011;60655;52.182;4.474;2022-10-16T08:50:42;8.02;;;2.05;;
72611;SDS011;60655;52.182;4.474;2022-10-16T08:52:44;7.75;;;1.92;;
72611;SDS011;60655;52.182;4.474;2022-10-16T08:54:46;7.28;;;1.45;;
72611;SDS011;60655;52.182;4.474;2022-10-16T08:56:57;13.50;;;1.73;;
72611;SDS011;60655;52.182;4.474;2022-10-16T08:59:10;10.13;;;2.13;;
72611;SDS011;60655;52.182;4.474;2022-10-16T09:01:15;12.55;;;1.65;;
72611;SDS011;60655;52.182;4.474;2022-10-16T09:03:22;10.82;;;2.60;;
72611;SDS011;60655;52.182;4.474;2022-10-16T09:08:01;11.60;;;1.50;;
72611;SDS011;60655;52.182;4.474;2022-10-16T09:10:26;6.85;;;1.60;;
72611;SDS011;60655;52.182;4.474;2022-10-16T09:20:07;10.60;;;2.22;;
72611;SDS011;60655;52.182;4.474;2022-10-16T09:22:12;11.63;;;1.80;;
72611;SDS011;60655;52.182;4.474;2022-10-16T09:24:17;8.30;;;1.45;;
72611;SDS011;60655;52.182;4.474;2022-10-16T09:26:21;15.45;;;1.80;;
72611;SDS011;60655;52.182;4.474;2022-10-16T09:28:22;9.40;;;1.55;;
72611;SDS011;60655;52.182;4.474;2022-10-16T09:30:25;10.88;;;1.58;;
72611;SDS011;60655;52.182;4.474;2022-10-16T09:32:28;14.07;;;1.60;;
72611;SDS011;60655;52.182;4.474;2022-10-16T09:34:33;17.33;;;2.03;;
72611;SDS011;60655;52.182;4.474;2022-10-16T09:36:41;20.83;;;1.77;;
72611;SDS011;60655;52.182;4.474;2022-10-16T09:38:45;11.88;;;1.90;;
72611;SDS011;60655;52.182;4.474;2022-10-16T09:40:46;11.25;;;1.92;;
72611;SDS011;60655;52.182;4.474;2022-10-16T09:42:47;11.60;;;1.60;;
72611;SDS011;60655;52.182;4.474;2022-10-16T09:44:49;11.32;;;2.47;;
72611;SDS011;60655;52.182;4.474;2022-10-16T09:47:01;11.40;;;1.77;;
72611;SDS011;60655;52.182;4.474;2022-10-16T09:49:22;14.02;;;1.88;;
72611;SDS011;60655;52.182;4.474;2022-10-16T09:51:29;18.73;;;2.00;;
72611;SDS011;60655;52.182;4.474;2022-10-16T09:53:42;14.45;;;1.63;;
72611;SDS011;60655;52.182;4.474;2022-10-16T09:55:48;10.82;;;1.52;;
72611;SDS011;60655;52.182;4.474;2022-10-16T09:57:51;14.65;;;1.92;;
72611;SDS011;60655;52.182;4.474;2022-10-16T09:59:56;11.85;;;1.48;;
72611;SDS011;60655;52.182;4.474;2022-10-16T10:02:01;12.88;;;1.75;;
72611;SDS011;60655;52.182;4.474;2022-10-16T10:04:04;15.10;;;1.60;;
72611;SDS011;60655;52.182;4.474;2022-10-16T10:06:14;11.73;;;1.50;;
72611;SDS011;60655;52.182;4.474;2022-10-16T10:08:19;10.82;;;1.48;;
72611;SDS011;60655;52.182;4.474;2022-10-16T10:10:21;13.02;;;1.80;;
72611;SDS011;60655;52.182;4.474;2022-10-16T10:12:28;6.32;;;1.02;;
72611;SDS011;60655;52.182;4.474;2022-10-16T10:14:36;13.90;;;1.55;;
72611;SDS011;60655;52.182;4.474;2022-10-16T10:16:40;8.63;;;1.40;;
72611;SDS011;60655;52.182;4.474;2022-10-16T10:18:41;13.80;;;1.77;;
72611;SDS011;60655;52.182;4.474;2022-10-16T10:20:42;13.85;;;1.85;;
72611;SDS011;60655;52.182;4.474;2022-10-16T10:22:44;9.40;;;1.52;;
72611;SDS011;60655;52.182;4.474;2022-10-16T10:27:12;10.98;;;1.55;;
72611;SDS011;60655;52.182;4.474;2022-10-16T10:29:20;15.43;;;1.30;;
72611;SDS011;60655;52.182;4.474;2022-10-16T10:31:27;11.57;;;1.55;;
72611;SDS011;60655;52.182;4.474;2022-10-16T10:36:34;11.57;;;1.25;;
72611;SDS011;60655;52.182;4.474;2022-10-16T10:38:44;11.18;;;1.25;;
72611;SDS011;60655;52.182;4.474;2022-10-16T10:40:51;14.35;;;1.40;;
72611;SDS011;60655;52.182;4.474;2022-10-16T10:42:59;11.02;;;1.73;;
72611;SDS011;60655;52.182;4.474;2022-10-16T10:45:08;9.00;;;1.10;;
72611;SDS011;60655;52.182;4.474;2022-10-16T11:05:33;10.30;;;1.42;;
72611;SDS011;60655;52.182;4.474;2022-10-16T11:07:38;8.40;;;1.48;;
72611;SDS011;60655;52.182;4.474;2022-10-16T11:09:48;8.43;;;1.02;;
72611;SDS011;60655;52.182;4.474;2022-10-16T11:11:58;11.57;;;0.90;;
72611;SDS011;60655;52.182;4.474;2022-10-16T11:14:06;17.20;;;1.60;;
72611;SDS011;60655;52.182;4.474;2022-10-16T11:16:29;12.90;;;1.30;;
72611;SDS011;60655;52.182;4.474;2022-10-16T11:21:12;11.50;;;1.17;;
72611;SDS011;60655;52.182;4.474;2022-10-16T11:23:16;10.65;;;1.20;;
72611;SDS011;60655;52.182;4.474;2022-10-16T11:25:27;10.90;;;1.50;;
72611;SDS011;60655;52.182;4.474;2022-10-16T11:27:40;13.60;;;1.23;;
72611;SDS011;60655;52.182;4.474;2022-10-16T11:29:53;11.40;;;1.40;;
72611;SDS011;60655;52.182;4.474;2022-10-16T11:32:00;9.48;;;1.20;;
72611;SDS011;60655;52.182;4.474;2022-10-16T11:36:40;10.60;;;1.15;;
72611;SDS011;60655;52.182;4.474;2022-10-16T11:38:52;11.60;;;1.33;;
72611;SDS011;60655;52.182;4.474;2022-10-16T11:41:03;9.48;;;1.33;;
72611;SDS011;60655;52.182;4.474;2022-10-16T11:43:22;8.60;;;1.10;;
72611;SDS011;60655;52.182;4.474;2022-10-16T11:45:49;7.72;;;0.95;;
72611;SDS011;60655;52.182;4.474;2022-10-16T11:47:58;10.63;;;1.10;;
72611;SDS011;60655;52.182;4.474;2022-10-16T11:50:28;7.72;;;1.10;;
72611;SDS011;60655;52.182;4.474;2022-10-16T11:55:04;8.73;;;1.30;;
72611;SDS011;60655;52.182;4.474;2022-10-16T11:57:29;9.75;;;1.08;;
72611;SDS011;60655;52.182;4.474;2022-10-16T12:01:44;9.88;;;0.90;;
72611;SDS011;60655;52.182;4.474;2022-10-16T12:06:27;9.55;;;1.02;;
72611;SDS011;60655;52.182;4.474;2022-10-16T12:08:34;9.10;;;1.13;;
72611;SDS011;60655;52.182;4.474;2022-10-16T12:10:36;7.68;;;0.90;;
72611;SDS011;60655;52.182;4.474;2022-10-16T12:12:39;7.07;;;0.90;;
72611;SDS011;60655;52.182;4.474;2022-10-16T12:14:40;7.88;;;1.00;;
72611;SDS011;60655;52.182;4.474;2022-10-16T12:16:58;9.30;;;0.90;;
72611;SDS011;60655;52.182;4.474;2022-10-16T12:19:24;8.60;;;1.10;;
72611;SDS011;60655;52.182;4.474;2022-10-16T12:21:30;7.45;;;1.25;;
72611;SDS011;60655;52.182;4.474;2022-10-16T12:23:38;11.23;;;1.05;;
72611;SDS011;60655;52.182;4.474;2022-10-16T12:25:53;9.50;;;1.15;;
72611;SDS011;60655;52.182;4.474;2022-10-16T12:28:18;14.65;;;1.58;;
72611;SDS011;60655;52.182;4.474;2022-10-16T12:30:22;12.95;;;1.30;;
72611;SDS011;60655;52.182;4.474;2022-10-16T12:32:32;9.52;;;1.02;;
72611;SDS011;60655;52.182;4.474;2022-10-16T12:34:39;8.73;;;0.88;;
72611;SDS011;60655;52.182;4.474;2022-10-16T12:36:43;10.25;;;1.15;;
72611;SDS011;60655;52.182;4.474;2022-10-16T12:41:47;9.73;;;1.23;;
72611;SDS011;60655;52.182;4.474;2022-10-16T12:45:40;7.85;;;1.15;;
72611;SDS011;60655;52.182;4.474;2022-10-16T12:47:48;21.08;;;1.50;;
72611;SDS011;60655;52.182;4.474;2022-10-16T12:49:52;8.48;;;1.02;;
72611;SDS011;60655;52.182;4.474;2022-10-16T12:51:55;8.65;;;1.15;;
72611;SDS011;60655;52.182;4.474;2022-10-16T12:54:13;6.18;;;0.77;;
72611;SDS011;60655;52.182;4.474;2022-10-16T12:56:24;10.00;;;1.05;;
72611;SDS011;60655;52.182;4.474;2022-10-16T13:00:54;11.48;;;1.20;;
72611;SDS011;60655;52.182;4.474;2022-10-16T13:07:35;10.77;;;1.40;;
72611;SDS011;60655;52.182;4.474;2022-10-16T13:10:15;5.78;;;1.27;;
72611;SDS011;60655;52.182;4.474;2022-10-16T13:12:17;7.65;;;1.23;;
72611;SDS011;60655;52.182;4.474;2022-10-16T13:19:57;7.72;;;1.30;;
72611;SDS011;60655;52.182;4.474;2022-10-16T13:24:30;7.13;;;1.17;;
72611;SDS011;60655;52.182;4.474;2022-10-16T13:26:59;7.75;;;1.20;;
72611;SDS011;60655;52.182;4.474;2022-10-16T13:29:12;6.95;;;1.20;;
72611;SDS011;60655;52.182;4.474;2022-10-16T13:31:18;14.07;;;1.45;;
72611;SDS011;60655;52.182;4.474;2022-10-16T13:33:37;10.48;;;1.33;;
72611;SDS011;60655;52.182;4.474;2022-10-16T13:35:48;13.70;;;1.75;;
72611;SDS011;60655;52.182;4.474;2022-10-16T13:37:51;6.00;;;0.95;;
72611;SDS011;60655;52.182;4.474;2022-10-16T13:40:12;8.32;;;1.30;;
72611;SDS011;60655;52.182;4.474;2022-10-16T13:42:25;12.00;;;1.30;;
72611;SDS011;60655;52.182;4.474;2022-10-16T13:44:28;9.38;;;1.30;;
72611;SDS011;60655;52.182;4.474;2022-10-16T13:46:36;8.20;;;0.90;;
72611;SDS011;60655;52.182;4.474;2022-10-16T13:48:37;8.95;;;1.10;;
72611;SDS011;60655;52.182;4.474;2022-10-16T13:50:38;7.50;;;1.25;;
72611;SDS011;60655;52.182;4.474;2022-10-16T13:52:39;11.13;;;1.20;;
72611;SDS011;60655;52.182;4.474;2022-10-16T13:54:41;8.15;;;1.25;;